Wind Star — C6CA9 — position and weather

sailwx.info

Track history (hours):
 
Tides and Currents Weather Stations Pressure Air Temp Water Temp Dewpoint Dewpoint Depression Visibility Wind Speed Wind Dir Waves Ship Positions

Wind Star

Operator: Holland America Line

Last reported at 2018-May-26 19:23 UTC. Time now 2018-May-27 03:37 UTC.
Position N 37°17' E 023°39'.

Length 134 m; draft 4.1 m.

Type: Ship. MMSI: 309163000.

Date/timePositionNaut miles runAvg speedWind from/ knotsBaromVisibWave heightAir tempDewpointWater temp
2018-May-26 19:23N 37°17' E 023°39'17 7.9
2018-May-26 17:12N 37°34' E 023°43'2 7.8
2018-May-26 17:00N 37°36' E 023°43'4 7.5
2018-May-26 16:30N 37°40' E 023°42'4 7.6
2018-May-26 15:59N 37°43' E 023°40'4 7.9
2018-May-26 15:30N 37°46' E 023°38'5 9.9
2018-May-26 15:00N 37°51' E 023°37'510.0
2018-May-26 14:31N 37°56' E 023°37'1 1.8
2018-May-26 13:59N 37°56' E 023°38'0 0.0
2018-May-26 13:29N 37°56' E 023°38'0 0.0
2018-May-26 12:59N 37°56' E 023°38'0 0.0
2018-May-26 12:23N 37°56' E 023°38'0 0.0
2018-May-26 11:59N 37°56' E 023°38'0 0.0
2018-May-26 11:29N 37°56' E 023°38'0 0.0
2018-May-26 10:59N 37°56' E 023°38'0 0.0
2018-May-26 10:29N 37°56' E 023°38'0 0.0
2018-May-26 09:53N 37°56' E 023°38'0 0.0
2018-May-26 09:29N 37°56' E 023°38'0 0.0
2018-May-26 08:59N 37°56' E 023°38'0 0.0
2018-May-26 08:29N 37°56' E 023°38'0 0.0
2018-May-26 07:53N 37°56' E 023°38'0 0.0
2018-May-26 07:29N 37°56' E 023°38'0 0.0
2018-May-26 05:29N 37°56' E 023°38'0 0.0
2018-May-26 04:59N 37°56' E 023°38'0 0.0
2018-May-26 04:29N 37°56' E 023°38'0 0.0
2018-May-26 03:59N 37°56' E 023°38'0 0.8
2018-May-26 03:31N 37°56' E 023°38'3 5.0
2018-May-26 03:00N 37°54' E 023°37'2 4.4
2018-May-26 02:30N 37°52' E 023°38'3 5.4
2018-May-26 02:00N 37°50' E 023°40'3 6.5
2018-May-26 01:30N 37°47' E 023°41'  
2018-May-21 17:57N 37°44' E 025°43'4 9.6
2018-May-21 17:29N 37°42' E 025°39'5 9.4
2018-May-21 17:00N 37°39' E 025°34'15 8.8
2018-May-21 15:17N 37°31' E 025°18'2 6.5
2018-May-21 14:57N 37°29' E 025°17'3 0.8
2018-May-21 11:30N 37°27' E 025°19'0 0.0
2018-May-21 11:00N 37°27' E 025°19'0 0.0
2018-May-21 10:09N 37°27' E 025°19'0 0.0
2018-May-21 07:18N 37°27' E 025°19'0 0.0
2018-May-21 06:42N 37°27' E 025°19'0 0.0
2018-May-21 06:24N 37°27' E 025°19'0 0.0
2018-May-21 05:51N 37°27' E 025°19'0 0.1
2018-May-21 05:30N 37°27' E 025°19'0 0.1
2018-May-21 05:00N 37°27' E 025°19'2 4.1
2018-May-21 04:30N 37°27' E 025°17'5 9.6
2018-May-21 04:01N 37°27' E 025°11'5 8.9
2018-May-21 03:29N 37°25' E 025°06'4 8.9
2018-May-21 03:00N 37°22' E 025°01'5 9.5
2018-May-21 02:30N 37°21' E 024°55'6 9.7
2018-May-21 01:52N 37°19' E 024°48'73 2.6
2018-May-19 22:03N 37°09' E 023°17'1 6.9
2018-May-19 21:52N 37°09' E 023°19'6 7.3
2018-May-19 21:05N 37°09' E 023°26'1 7.2
2018-May-19 20:58N 37°10' E 023°27'19 7.6
2018-May-19 18:28N 37°24' E 023°43'9 8.2
2018-May-19 17:25N 37°33' E 023°43'3 8.1
2018-May-19 17:00N 37°36' E 023°43'4 7.8
2018-May-19 16:30N 37°40' E 023°42'4 7.5
2018-May-19 15:59N 37°44' E 023°40'4 7.7
2018-May-19 15:30N 37°47' E 023°38'4 7.9
2018-May-19 15:00N 37°51' E 023°36'4 8.6
2018-May-19 14:30N 37°55' E 023°37'2 3.5
2018-May-19 14:00N 37°56' E 023°38'0 0.0
2018-May-19 13:30N 37°56' E 023°38'0 0.0
2018-May-19 13:00N 37°56' E 023°38'0 0.0
2018-May-19 12:30N 37°56' E 023°38'0 0.0
2018-May-19 12:00N 37°56' E 023°38'0 0.0
2018-May-19 11:30N 37°56' E 023°38'0 0.0
2018-May-19 11:00N 37°56' E 023°38'0 0.0
2018-May-19 10:30N 37°56' E 023°38'0 0.0
2018-May-19 10:00N 37°56' E 023°38'0 0.0
2018-May-19 09:30N 37°56' E 023°38'0 0.0
2018-May-19 09:00N 37°56' E 023°38'0 0.0
2018-May-19 08:30N 37°56' E 023°38'0 0.0
2018-May-19 08:00N 37°56' E 023°38'0 0.0
2018-May-19 07:27N 37°56' E 023°38'0 0.0
2018-May-19 07:00N 37°56' E 023°38'0 0.0
2018-May-19 06:30N 37°56' E 023°38'0 0.0
2018-May-19 06:00N 37°56' E 023°38'0 0.0
2018-May-19 05:30N 37°56' E 023°38'0 0.0
2018-May-19 05:00N 37°56' E 023°38'0 0.0
2018-May-19 04:30N 37°56' E 023°38'0 0.0
2018-May-19 04:00N 37°56' E 023°38'1 2.0
2018-May-19 03:30N 37°56' E 023°37'3 5.3
2018-May-19 03:00N 37°53' E 023°37'3 6.0
2018-May-19 02:30N 37°51' E 023°39'3 6.7
2018-May-19 02:00N 37°48' E 023°41'4 7.1
2018-May-19 01:30N 37°45' E 023°43'4 7.8
2018-May-19 01:00N 37°41' E 023°45'4 8.1
2018-May-19 00:29N 37°37' E 023°46'  
Track history (hours):
 
Tides and Currents Weather Stations Pressure Air Temp Water Temp Dewpoint Dewpoint Depression Visibility Wind Speed Wind Dir Waves Ship Positions

Wind Star

Operator: Holland America Line

Last reported at 2018-May-26 19:23 UTC. Time now 2018-May-27 03:37 UTC.
Position N 37°17' E 023°39'.

Length 134 m; draft 4.1 m.

Type: Ship. MMSI: 309163000.

Date/timePositionNaut miles runAvg speedWind from/ knotsBaromVisibWave heightAir tempDewpointWater temp
2018-May-26 19:23N 37°17' E 023°39'17 7.9
2018-May-26 17:12N 37°34' E 023°43'2 7.8
2018-May-26 17:00N 37°36' E 023°43'4 7.5
2018-May-26 16:30N 37°40' E 023°42'4 7.6
2018-May-26 15:59N 37°43' E 023°40'4 7.9
2018-May-26 15:30N 37°46' E 023°38'5 9.9
2018-May-26 15:00N 37°51' E 023°37'510.0
2018-May-26 14:31N 37°56' E 023°37'1 1.8
2018-May-26 13:59N 37°56' E 023°38'0 0.0
2018-May-26 13:29N 37°56' E 023°38'0 0.0
2018-May-26 12:59N 37°56' E 023°38'0 0.0
2018-May-26 12:23N 37°56' E 023°38'0 0.0
2018-May-26 11:59N 37°56' E 023°38'0 0.0
2018-May-26 11:29N 37°56' E 023°38'0 0.0
2018-May-26 10:59N 37°56' E 023°38'0 0.0
2018-May-26 10:29N 37°56' E 023°38'0 0.0
2018-May-26 09:53N 37°56' E 023°38'0 0.0
2018-May-26 09:29N 37°56' E 023°38'0 0.0
2018-May-26 08:59N 37°56' E 023°38'0 0.0
2018-May-26 08:29N 37°56' E 023°38'0 0.0
2018-May-26 07:53N 37°56' E 023°38'0 0.0
2018-May-26 07:29N 37°56' E 023°38'0 0.0
2018-May-26 05:29N 37°56' E 023°38'0 0.0
2018-May-26 04:59N 37°56' E 023°38'0 0.0
2018-May-26 04:29N 37°56' E 023°38'0 0.0
2018-May-26 03:59N 37°56' E 023°38'0 0.8
2018-May-26 03:31N 37°56' E 023°38'3 5.0
2018-May-26 03:00N 37°54' E 023°37'2 4.4
2018-May-26 02:30N 37°52' E 023°38'3 5.4
2018-May-26 02:00N 37°50' E 023°40'3 6.5
2018-May-26 01:30N 37°47' E 023°41'  
2018-May-21 17:57N 37°44' E 025°43'4 9.6
2018-May-21 17:29N 37°42' E 025°39'5 9.4
2018-May-21 17:00N 37°39' E 025°34'15 8.8
2018-May-21 15:17N 37°31' E 025°18'2 6.5
2018-May-21 14:57N 37°29' E 025°17'3 0.8
2018-May-21 11:30N 37°27' E 025°19'0 0.0
2018-May-21 11:00N 37°27' E 025°19'0 0.0
2018-May-21 10:09N 37°27' E 025°19'0 0.0
2018-May-21 07:18N 37°27' E 025°19'0 0.0
2018-May-21 06:42N 37°27' E 025°19'0 0.0
2018-May-21 06:24N 37°27' E 025°19'0 0.0
2018-May-21 05:51N 37°27' E 025°19'0 0.1
2018-May-21 05:30N 37°27' E 025°19'0 0.1
2018-May-21 05:00N 37°27' E 025°19'2 4.1
2018-May-21 04:30N 37°27' E 025°17'5 9.6
2018-May-21 04:01N 37°27' E 025°11'5 8.9
2018-May-21 03:29N 37°25' E 025°06'4 8.9
2018-May-21 03:00N 37°22' E 025°01'5 9.5
2018-May-21 02:30N 37°21' E 024°55'6 9.7
2018-May-21 01:52N 37°19' E 024°48'73 2.6
2018-May-19 22:03N 37°09' E 023°17'1 6.9
2018-May-19 21:52N 37°09' E 023°19'6 7.3
2018-May-19 21:05N 37°09' E 023°26'1 7.2
2018-May-19 20:58N 37°10' E 023°27'19 7.6
2018-May-19 18:28N 37°24' E 023°43'9 8.2
2018-May-19 17:25N 37°33' E 023°43'3 8.1
2018-May-19 17:00N 37°36' E 023°43'4 7.8
2018-May-19 16:30N 37°40' E 023°42'4 7.5
2018-May-19 15:59N 37°44' E 023°40'4 7.7
2018-May-19 15:30N 37°47' E 023°38'4 7.9
2018-May-19 15:00N 37°51' E 023°36'4 8.6
2018-May-19 14:30N 37°55' E 023°37'2 3.5
2018-May-19 14:00N 37°56' E 023°38'0 0.0
2018-May-19 13:30N 37°56' E 023°38'0 0.0
2018-May-19 13:00N 37°56' E 023°38'0 0.0
2018-May-19 12:30N 37°56' E 023°38'0 0.0
2018-May-19 12:00N 37°56' E 023°38'0 0.0
2018-May-19 11:30N 37°56' E 023°38'0 0.0
2018-May-19 11:00N 37°56' E 023°38'0 0.0
2018-May-19 10:30N 37°56' E 023°38'0 0.0
2018-May-19 10:00N 37°56' E 023°38'0 0.0
2018-May-19 09:30N 37°56' E 023°38'0 0.0
2018-May-19 09:00N 37°56' E 023°38'0 0.0
2018-May-19 08:30N 37°56' E 023°38'0 0.0
2018-May-19 08:00N 37°56' E 023°38'0 0.0
2018-May-19 07:27N 37°56' E 023°38'0 0.0
2018-May-19 07:00N 37°56' E 023°38'0 0.0
2018-May-19 06:30N 37°56' E 023°38'0 0.0
2018-May-19 06:00N 37°56' E 023°38'0 0.0
2018-May-19 05:30N 37°56' E 023°38'0 0.0
2018-May-19 05:00N 37°56' E 023°38'0 0.0
2018-May-19 04:30N 37°56' E 023°38'0 0.0
2018-May-19 04:00N 37°56' E 023°38'1 2.0
2018-May-19 03:30N 37°56' E 023°37'3 5.3
2018-May-19 03:00N 37°53' E 023°37'3 6.0
2018-May-19 02:30N 37°51' E 023°39'3 6.7
2018-May-19 02:00N 37°48' E 023°41'4 7.1
2018-May-19 01:30N 37°45' E 023°43'4 7.8
2018-May-19 01:00N 37°41' E 023°45'4 8.1
2018-May-19 00:29N 37°37' E 023°46'  

Dump ship's entire track history